首页
METAR-TAF:

METAR-TAF

机场 :

Red Cliff Pass

Copper Mountain, 科羅拉多州, 美国

纬度: 39-28-02N, 经度: 106-09-01W, 海拔: 3680米

当前天气观测

该预报发布于34分钟前的16:55 UTC
风速10节,风向西北,有时为18节阵风
温度 16°C
湿度 42%
气压 1039 hPa
能見度: 16.1公里
天空无云

METAR: KCCU 241655Z AUTO 31010G18KT 10SM CLR 16/03 A3068 RMK AO2

时间: 11:29 (17:29 UTC)


TAF: 丢失

超过4000个机场的气象观测和天气预报(METAR&TAF报告)。

可查询的气象台以黄色和红色小点在地图上表示。

将鼠标移到小点上方,可查看气象台名称。

然后点击查看天气观测和预报。

如需切换地图:点击带黑十字的绿色按钮放大地图;点击带横线的绿色按钮缩小地图;或者点击绿色箭头查看邻近地区的地图。


METAR-TAF: